createdAt,value
2018-09-09T00:01:57.863Z,17.90
2018-09-09T00:04:26.842Z,17.60
2018-09-09T00:06:55.864Z,21.27
2018-09-09T00:09:29.869Z,17.80
2018-09-09T00:11:58.920Z,18.03
2018-09-09T00:14:27.874Z,18.23
2018-09-09T00:16:56.788Z,19.10
2018-09-09T00:19:25.723Z,16.77
2018-09-09T00:21:54.733Z,16.03
2018-09-09T00:24:23.732Z,17.37
2018-09-09T00:26:52.716Z,19.60
2018-09-09T00:29:21.693Z,16.63
2018-09-09T00:31:50.604Z,17.60
2018-09-09T00:34:19.521Z,18.87
2018-09-09T00:36:48.543Z,18.13
2018-09-09T00:39:17.454Z,17.27
2018-09-09T00:41:46.558Z,16.83
2018-09-09T00:44:15.522Z,18.40
2018-09-09T00:46:44.635Z,18.53
2018-09-09T00:49:18.706Z,16.70
2018-09-09T00:51:52.747Z,18.93
2018-09-09T00:54:21.713Z,18.53
2018-09-09T00:56:50.672Z,16.97
2018-09-09T00:59:19.596Z,17.97
2018-09-09T01:01:48.551Z,17.50
2018-09-09T01:04:17.468Z,18.67
2018-09-09T01:06:46.485Z,17.40
2018-09-09T01:09:16.296Z,18.70
2018-09-09T01:11:45.195Z,17.10
2018-09-09T01:14:14.083Z,16.63
2018-09-09T01:16:43.019Z,17.93
2018-09-09T01:19:11.994Z,15.73
2018-09-09T01:21:40.960Z,17.63
2018-09-09T01:24:09.889Z,19.40
2018-09-09T01:26:38.896Z,17.20
2018-09-09T01:29:07.835Z,17.27
2018-09-09T01:31:36.752Z,17.10
2018-09-09T01:34:05.671Z,16.87
2018-09-09T01:36:34.637Z,17.27
2018-09-09T01:39:03.728Z,20.97
2018-09-09T01:41:32.637Z,20.00
2018-09-09T01:44:01.520Z,20.47
2018-09-09T01:46:30.437Z,16.93
2018-09-09T01:48:59.403Z,15.93
2018-09-09T01:51:28.396Z,15.97
2018-09-09T01:53:57.306Z,15.97
2018-09-09T01:56:26.360Z,16.10
2018-09-09T01:58:55.278Z,15.17
2018-09-09T02:01:24.280Z,15.77
2018-09-09T02:03:53.255Z,16.57
2018-09-09T02:06:22.206Z,15.47
2018-09-09T02:08:51.153Z,17.00
2018-09-09T02:11:20.094Z,15.23
2018-09-09T02:13:49.027Z,15.17
2018-09-09T02:16:17.939Z,15.27
2018-09-09T02:18:46.916Z,15.83
2018-09-09T02:21:15.883Z,14.10
2018-09-09T02:23:44.855Z,15.80
2018-09-09T02:26:13.859Z,16.47
2018-09-09T02:28:42.756Z,15.10
2018-09-09T02:31:11.764Z,15.00
2018-09-09T02:33:39.518Z,16.77
2018-09-09T02:36:08.517Z,16.70
2018-09-09T02:38:37.449Z,16.77
2018-09-09T02:41:06.661Z,15.73
2018-09-09T02:43:35.646Z,16.10
2018-09-09T02:46:04.560Z,15.83
2018-09-09T02:48:33.489Z,15.90
2018-09-09T02:51:02.404Z,17.00
2018-09-09T02:53:31.444Z,17.03
2018-09-09T02:56:00.456Z,15.53
2018-09-09T02:58:29.380Z,16.10
2018-09-09T03:00:58.322Z,15.67
2018-09-09T03:03:27.244Z,15.33
2018-09-09T03:05:56.236Z,15.30
2018-09-09T03:08:25.222Z,17.47
2018-09-09T03:10:59.235Z,18.03
2018-09-09T03:13:28.153Z,18.03
2018-09-09T03:15:57.052Z,19.53
2018-09-09T03:18:26.098Z,17.70
2018-09-09T03:20:55.008Z,17.80
2018-09-09T03:23:23.933Z,21.27
2018-09-09T03:25:52.844Z,20.97
2018-09-09T03:28:21.895Z,20.37
2018-09-09T03:30:50.797Z,20.70
2018-09-09T03:33:19.761Z,16.87
2018-09-09T03:35:48.676Z,17.67
2018-09-09T03:38:17.780Z,18.63
2018-09-09T03:40:46.841Z,16.47
2018-09-09T03:43:15.813Z,18.60
2018-09-09T03:45:44.844Z,16.60
2018-09-09T03:48:13.820Z,16.00
2018-09-09T03:50:42.724Z,16.93
2018-09-09T03:53:11.640Z,22.40
2018-09-09T03:55:40.540Z,15.77
2018-09-09T03:58:09.525Z,16.13
2018-09-09T04:00:38.561Z,16.67
2018-09-09T04:03:07.982Z,16.00
2018-09-09T04:05:36.997Z,15.60
2018-09-09T04:08:06.099Z,17.90
2018-09-09T04:10:35.052Z,16.97
2018-09-09T04:13:03.991Z,19.57
2018-09-09T04:15:32.945Z,16.90
2018-09-09T04:18:01.916Z,17.63
2018-09-09T04:20:30.949Z,17.10
2018-09-09T04:22:59.860Z,17.43
2018-09-09T04:25:28.824Z,21.53
2018-09-09T04:27:57.817Z,24.47
2018-09-09T04:30:26.798Z,22.70
2018-09-09T04:32:55.840Z,17.80
2018-09-09T04:35:24.752Z,16.13
2018-09-09T04:37:53.802Z,16.87
2018-09-09T04:40:22.736Z,23.30
2018-09-09T04:42:51.667Z,21.93
2018-09-09T04:45:20.821Z,20.87
2018-09-09T04:47:49.880Z,18.60
2018-09-09T04:50:18.872Z,19.63
2018-09-09T04:52:47.779Z,20.63
2018-09-09T04:55:16.767Z,21.37
2018-09-09T04:57:45.657Z,22.63
2018-09-09T05:00:14.623Z,22.73
2018-09-09T05:02:43.569Z,19.73
2018-09-09T05:05:12.504Z,23.57
2018-09-09T05:07:41.431Z,22.13
2018-09-09T05:10:10.371Z,22.20
2018-09-09T05:12:39.460Z,24.17
2018-09-09T05:15:08.432Z,21.10
2018-09-09T05:17:37.336Z,26.27
2018-09-09T05:20:06.307Z,26.87
2018-09-09T05:22:35.313Z,22.77
2018-09-09T05:25:04.306Z,25.43
2018-09-09T05:27:33.225Z,21.23
2018-09-09T05:30:02.216Z,26.67
2018-09-09T05:32:31.120Z,21.53
2018-09-09T05:35:00.092Z,23.60
2018-09-09T05:37:29.017Z,23.07
2018-09-09T05:39:57.945Z,23.63
2018-09-09T05:42:26.977Z,19.43
2018-09-09T05:44:56.046Z,21.53
2018-09-09T05:47:25.081Z,23.83
2018-09-09T05:49:54.304Z,20.40
2018-09-09T05:52:23.252Z,19.90
2018-09-09T05:54:52.258Z,20.53
2018-09-09T05:57:21.182Z,21.43
2018-09-09T05:59:50.127Z,19.77
2018-09-09T06:02:19.093Z,22.00
2018-09-09T06:04:48.080Z,19.63
2018-09-09T06:07:17.052Z,19.53
2018-09-09T06:09:45.960Z,23.47
2018-09-09T06:12:14.960Z,21.83
2018-09-09T06:14:43.892Z,20.83
2018-09-09T06:17:12.936Z,20.43
2018-09-09T06:19:41.871Z,20.33
2018-09-09T06:22:10.776Z,22.17
2018-09-09T06:24:39.801Z,23.87
2018-09-09T06:27:08.712Z,23.87
2018-09-09T06:29:37.736Z,20.37
2018-09-09T06:32:06.820Z,20.63
2018-09-09T06:34:36.224Z,18.23
2018-09-09T06:37:05.170Z,18.77
2018-09-09T06:39:34.153Z,20.20
2018-09-09T06:42:03.112Z,18.87
2018-09-09T06:44:32.016Z,21.17
2018-09-09T06:47:01.076Z,23.20
2018-09-09T06:49:30.249Z,20.43
2018-09-09T06:51:59.592Z,18.40
2018-09-09T06:54:28.816Z,21.17
2018-09-09T06:56:57.775Z,15.97
2018-09-09T06:59:27.528Z,17.17
2018-09-09T07:01:56.600Z,21.30
2018-09-09T07:04:25.593Z,22.43
2018-09-09T07:06:54.556Z,24.07
2018-09-09T07:09:23.666Z,19.03
2018-09-09T07:11:52.705Z,17.33
2018-09-09T07:14:21.692Z,21.33
2018-09-09T07:16:50.627Z,23.57
2018-09-09T07:19:19.650Z,19.00
2018-09-09T07:21:48.641Z,16.73
2018-09-09T07:24:17.646Z,18.07
2018-09-09T07:26:46.644Z,18.37
2018-09-09T07:29:16.381Z,20.07
2018-09-09T07:31:45.323Z,18.90
2018-09-09T07:34:14.507Z,15.80
2018-09-09T07:36:43.461Z,17.30
2018-09-09T07:39:12.462Z,17.03
2018-09-09T07:41:41.420Z,16.80
2018-09-09T07:44:10.362Z,20.63
2018-09-09T07:46:39.388Z,18.90
2018-09-09T07:49:08.381Z,16.87
2018-09-09T07:51:37.320Z,19.53
2018-09-09T07:54:06.268Z,16.80
2018-09-09T07:56:35.255Z,15.23
2018-09-09T07:59:04.307Z,17.40
2018-09-09T08:01:33.314Z,18.93
2018-09-09T08:04:02.296Z,14.93
2018-09-09T08:06:31.223Z,16.63
2018-09-09T08:09:00.226Z,19.30
2018-09-09T08:11:34.228Z,19.10
2018-09-09T08:14:03.291Z,18.40
2018-09-09T08:16:32.348Z,14.67
2018-09-09T08:19:01.523Z,17.27
2018-09-09T08:21:30.476Z,26.03
2018-09-09T08:23:59.885Z,23.63
2018-09-09T08:26:28.844Z,18.00
2018-09-09T08:28:57.792Z,17.17
2018-09-09T08:31:26.913Z,18.03
2018-09-09T08:33:55.910Z,14.23
2018-09-09T08:36:24.838Z,16.27
2018-09-09T08:38:53.764Z,17.87
2018-09-09T08:41:22.732Z,20.03
2018-09-09T08:43:51.773Z,14.77
2018-09-09T08:46:20.704Z,17.73
2018-09-09T08:48:49.744Z,14.40
2018-09-09T08:51:18.704Z,12.73
2018-09-09T08:53:47.683Z,14.10
2018-09-09T08:56:16.867Z,18.03
2018-09-09T08:58:45.876Z,11.93
2018-09-09T09:01:14.841Z,14.13
2018-09-09T09:03:43.816Z,14.87
2018-09-09T09:06:12.937Z,1346.60
2018-09-09T09:08:41.930Z,198.70
2018-09-09T09:11:10.890Z,17.00
2018-09-09T09:13:39.871Z,15.97
2018-09-09T09:16:08.797Z,14.47
2018-09-09T09:18:37.809Z,17.33
2018-09-09T09:21:06.752Z,16.67
2018-09-09T09:23:35.850Z,19.33
2018-09-09T09:26:04.813Z,15.90
2018-09-09T09:28:34.653Z,174.03
2018-09-09T09:31:03.588Z,140.17
2018-09-09T09:33:32.580Z,1999.90
2018-09-09T09:36:01.677Z,524.53
2018-09-09T09:38:30.680Z,1028.03
2018-09-09T09:40:59.665Z,553.47
2018-09-09T09:43:28.576Z,19.23
2018-09-09T09:45:57.508Z,14.53
2018-09-09T09:48:26.478Z,47.57
2018-09-09T09:50:55.427Z,15.97
2018-09-09T09:53:24.402Z,14.97
2018-09-09T09:55:53.932Z,30.77
2018-09-09T09:58:22.940Z,15.13
2018-09-09T10:00:56.966Z,216.43
2018-09-09T10:03:26.088Z,407.27
2018-09-09T10:05:55.027Z,241.63
2018-09-09T10:08:24.092Z,25.23
2018-09-09T10:10:53.115Z,52.93
2018-09-09T10:13:22.118Z,866.73
2018-09-09T10:15:51.058Z,21.90
2018-09-09T10:18:19.976Z,99.80
2018-09-09T10:20:48.966Z,23.67
2018-09-09T10:23:18.539Z,14.97
2018-09-09T10:25:47.460Z,32.77
2018-09-09T10:28:16.445Z,17.03
2018-09-09T10:30:45.413Z,14.63
2018-09-09T10:33:14.387Z,21.13
2018-09-09T10:35:43.377Z,49.73
2018-09-09T10:38:12.553Z,948.43
2018-09-09T10:40:41.558Z,1999.90
2018-09-09T10:43:10.495Z,1999.90
2018-09-09T10:45:39.553Z,1897.20
2018-09-09T10:48:08.568Z,963.83
2018-09-09T10:50:37.502Z,466.73
2018-09-09T10:53:06.591Z,517.53
2018-09-09T10:55:35.538Z,422.17
2018-09-09T10:58:04.601Z,240.90
2018-09-09T11:00:34.729Z,116.77
2018-09-09T11:03:03.840Z,106.70
2018-09-09T11:05:32.768Z,77.07
2018-09-09T11:08:01.690Z,61.60
2018-09-09T11:10:30.647Z,24.70
2018-09-09T11:12:59.767Z,84.03
2018-09-09T11:15:28.668Z,64.03
2018-09-09T11:17:57.603Z,87.10
2018-09-09T11:20:26.553Z,216.17
2018-09-09T11:22:55.480Z,557.40
2018-09-09T11:25:24.688Z,419.47
2018-09-09T11:27:53.671Z,734.50
2018-09-09T11:30:22.679Z,392.90
2018-09-09T11:32:51.727Z,279.93
2018-09-09T11:35:20.665Z,766.23
2018-09-09T11:37:49.624Z,970.33
2018-09-09T11:40:18.613Z,698.03
2018-09-09T11:42:47.630Z,708.73
2018-09-09T11:45:16.608Z,761.97
2018-09-09T11:47:45.650Z,431.83
2018-09-09T11:50:15.456Z,388.80
2018-09-09T11:52:44.500Z,61.08
2018-09-09T11:55:13.644Z,55.93
2018-09-09T11:57:42.655Z,169.97
2018-09-09T12:00:11.673Z,68.60
2018-09-09T12:02:40.668Z,58.47
2018-09-09T12:05:09.681Z,73.93
2018-09-09T12:07:38.687Z,37.47
2018-09-09T12:10:07.704Z,31.40
2018-09-09T12:12:36.805Z,107.20
2018-09-09T12:15:05.960Z,31.17
2018-09-09T12:17:34.927Z,251.63
2018-09-09T12:20:03.914Z,382.40
2018-09-09T12:22:32.903Z,515.30
2018-09-09T12:25:01.832Z,656.27
2018-09-09T12:27:30.848Z,1600.77
2018-09-09T12:29:59.873Z,649.53
2018-09-09T12:32:28.914Z,1379.17
2018-09-09T12:34:57.990Z,754.17
2018-09-09T12:37:26.939Z,825.67
2018-09-09T12:39:55.980Z,843.57
2018-09-09T12:42:24.923Z,496.07
2018-09-09T12:44:58.933Z,138.00
2018-09-09T12:47:33.140Z,251.27
2018-09-09T12:50:02.105Z,120.90
2018-09-09T12:52:31.083Z,92.93
2018-09-09T12:55:00.064Z,71.77
2018-09-09T12:57:29.000Z,65.40
2018-09-09T12:59:57.991Z,37.63
2018-09-09T13:02:26.919Z,34.30
2018-09-09T13:04:55.861Z,18.17
2018-09-09T13:07:24.966Z,21.07
2018-09-09T13:09:53.867Z,176.30
2018-09-09T13:12:22.835Z,35.13
2018-09-09T13:14:51.772Z,54.33
2018-09-09T13:17:20.748Z,101.27
2018-09-09T13:19:49.650Z,40.77
2018-09-09T13:22:18.631Z,39.30
2018-09-09T13:24:47.551Z,41.20
2018-09-09T13:27:16.560Z,31.30
2018-09-09T13:29:45.512Z,17.13
2018-09-09T13:32:14.540Z,16.10
2018-09-09T13:34:43.440Z,15.53
2018-09-09T13:37:12.544Z,11.43
2018-09-09T13:39:41.467Z,13.57
2018-09-09T13:42:10.485Z,11.23
2018-09-09T13:44:39.911Z,14.03
2018-09-09T13:47:09.249Z,15.30
2018-09-09T13:49:38.722Z,14.77
2018-09-09T13:52:07.906Z,12.27
2018-09-09T13:54:36.945Z,11.70
2018-09-09T13:57:05.969Z,11.40
2018-09-09T13:59:34.872Z,10.90
2018-09-09T14:02:03.864Z,12.97
2018-09-09T14:04:32.824Z,15.87
2018-09-09T14:07:01.814Z,10.27
2018-09-09T14:09:31.003Z,11.30
2018-09-09T14:11:59.939Z,11.93
2018-09-09T14:14:28.851Z,14.17
2018-09-09T14:16:57.811Z,12.47
2018-09-09T14:19:26.786Z,10.00
2018-09-09T14:21:55.760Z,9.13
2018-09-09T14:24:24.770Z,10.87
2018-09-09T14:26:53.696Z,10.93
2018-09-09T14:29:22.682Z,9.80
2018-09-09T14:31:51.650Z,7.63
2018-09-09T14:34:20.648Z,6.77
2018-09-09T14:36:49.689Z,401.23
2018-09-09T14:39:18.598Z,18.43
2018-09-09T14:41:47.864Z,9.40
2018-09-09T14:44:17.112Z,8.13
2018-09-09T14:46:46.209Z,12.80
2018-09-09T14:49:15.515Z,9.63
2018-09-09T14:51:44.481Z,6.27
2018-09-09T14:54:14.115Z,6.53
2018-09-09T14:56:43.566Z,6.40
2018-09-09T14:59:13.281Z,6.50
2018-09-09T15:01:44.092Z,9.43
2018-09-09T15:04:13.064Z,5.60
2018-09-09T15:06:42.111Z,10.87
2018-09-09T15:09:12.144Z,6.23
2018-09-09T15:11:41.356Z,9.90
2018-09-09T15:14:10.530Z,5.43
2018-09-09T15:16:39.650Z,20.70
2018-09-09T15:19:08.564Z,15.40
2018-09-09T15:21:37.580Z,6.97
2018-09-09T15:24:06.532Z,6.77
2018-09-09T15:26:35.661Z,11.30
2018-09-09T15:29:04.657Z,9.47
2018-09-09T15:31:33.671Z,7.67
2018-09-09T15:34:02.725Z,12.07
2018-09-09T15:36:31.761Z,10.00
2018-09-09T15:39:00.833Z,10.60
2018-09-09T15:41:29.820Z,7.40
2018-09-09T15:43:58.803Z,10.23
2018-09-09T15:46:27.836Z,7.37
2018-09-09T15:48:56.810Z,16.57
2018-09-09T15:51:25.840Z,15.83
2018-09-09T15:53:54.816Z,6.40
2018-09-09T15:56:23.940Z,20.00
2018-09-09T15:58:53.006Z,12.23
2018-09-09T16:01:22.796Z,7.93
2018-09-09T16:03:52.931Z,8.30
2018-09-09T16:06:22.751Z,8.70
2018-09-09T16:08:51.727Z,7.90
2018-09-09T16:11:20.706Z,7.83
2018-09-09T16:13:49.646Z,7.53
2018-09-09T16:16:18.640Z,7.03
2018-09-09T16:18:47.727Z,10.17
2018-09-09T16:21:16.650Z,171.57
2018-09-09T16:23:45.612Z,9.93
2018-09-09T16:26:14.595Z,7.33
2018-09-09T16:28:43.503Z,8.30
2018-09-09T16:31:12.421Z,12.73
2018-09-09T16:33:41.325Z,8.27
2018-09-09T16:36:10.292Z,10.87
2018-09-09T16:38:39.239Z,11.77
2018-09-09T16:41:08.270Z,8.93
2018-09-09T16:43:37.257Z,8.87
2018-09-09T16:46:06.244Z,8.07
2018-09-09T16:48:35.276Z,10.47
2018-09-09T16:51:04.227Z,10.40
2018-09-09T16:53:33.135Z,9.20
2018-09-09T16:56:02.126Z,14.33
2018-09-09T16:58:31.048Z,10.63
2018-09-09T17:01:00.128Z,8.83
2018-09-09T17:03:29.076Z,12.50
2018-09-09T17:05:57.999Z,9.33
2018-09-09T17:08:26.907Z,9.17
2018-09-09T17:10:55.808Z,7.97
2018-09-09T17:13:24.697Z,8.67
2018-09-09T17:15:53.599Z,8.50
2018-09-09T17:18:22.605Z,9.07
2018-09-09T17:20:51.624Z,9.83
2018-09-09T17:23:20.598Z,11.07
2018-09-09T17:25:49.434Z,8.60
2018-09-09T17:28:18.266Z,9.77
2018-09-09T17:30:47.123Z,10.80
2018-09-09T17:33:15.981Z,9.07
2018-09-09T17:35:44.862Z,11.37
2018-09-09T17:38:13.671Z,7.93
2018-09-09T17:40:42.502Z,8.07
2018-09-09T17:43:11.351Z,8.73
2018-09-09T17:45:40.214Z,8.70
2018-09-09T17:48:09.040Z,8.50
2018-09-09T17:50:37.895Z,8.77
2018-09-09T17:53:06.735Z,11.03
2018-09-09T17:55:35.540Z,12.97
2018-09-09T17:58:04.431Z,6.50
2018-09-09T18:00:33.291Z,9.90
2018-09-09T18:03:02.186Z,7.37
2018-09-09T18:05:31.072Z,33.77
2018-09-09T18:08:00.258Z,253.97
2018-09-09T18:10:29.139Z,19.90
2018-09-09T18:12:58.119Z,10.40
2018-09-09T18:15:27.058Z,9.07
2018-09-09T18:17:55.903Z,8.77
2018-09-09T18:20:24.906Z,7.13
2018-09-09T18:22:53.812Z,6.97
2018-09-09T18:25:22.715Z,9.67
2018-09-09T18:27:51.550Z,8.40
2018-09-09T18:30:20.432Z,9.27
2018-09-09T18:32:49.416Z,9.87
2018-09-09T18:35:18.240Z,8.87
2018-09-09T18:37:47.508Z,8.40
2018-09-09T18:40:16.336Z,8.33
2018-09-09T18:42:45.307Z,8.33
2018-09-09T18:45:14.148Z,13.20
2018-09-09T18:47:42.964Z,8.27
2018-09-09T18:50:11.816Z,12.27
2018-09-09T18:52:47.327Z,7.13
2018-09-09T18:55:19.575Z,10.57
2018-09-09T18:57:48.989Z,9.80
2018-09-09T19:00:18.391Z,8.70
2018-09-09T19:02:47.262Z,11.27
2018-09-09T19:05:17.504Z,7.73
2018-09-09T19:07:46.512Z,8.97
2018-09-09T19:10:15.784Z,11.27
2018-09-09T19:12:44.651Z,9.20
2018-09-09T19:15:13.500Z,10.07
2018-09-09T19:17:43.326Z,6.47
2018-09-09T19:20:12.199Z,8.00
2018-09-09T19:22:41.038Z,7.43
2018-09-09T19:25:09.986Z,7.03
2018-09-09T19:27:38.887Z,10.67
2018-09-09T19:30:07.794Z,8.07
2018-09-09T19:32:36.685Z,12.13
2018-09-09T19:35:05.708Z,16.27
2018-09-09T19:37:34.539Z,15.27
2018-09-09T19:40:03.457Z,16.23
2018-09-09T19:42:35.652Z,15.20
2018-09-09T19:45:05.727Z,18.37
2018-09-09T19:47:35.036Z,13.27
2018-09-09T19:50:05.015Z,12.60
2018-09-09T19:52:34.090Z,11.60
2018-09-09T19:55:02.946Z,6.50
2018-09-09T19:57:31.834Z,8.87
2018-09-09T20:00:00.664Z,6.67
2018-09-09T20:02:29.658Z,14.00
2018-09-09T20:04:58.547Z,11.70
2018-09-09T20:07:27.401Z,17.17
2018-09-09T20:09:56.326Z,11.77
2018-09-09T20:12:25.170Z,9.30
2018-09-09T20:14:54.040Z,7.83
2018-09-09T20:17:22.858Z,6.17
2018-09-09T20:19:51.699Z,7.67
2018-09-09T20:22:20.523Z,6.00
2018-09-09T20:24:49.369Z,7.87
2018-09-09T20:27:18.298Z,8.27
2018-09-09T20:29:47.197Z,9.23
2018-09-09T20:32:16.100Z,11.33
2018-09-09T20:34:44.920Z,8.37
2018-09-09T20:37:13.794Z,8.43
2018-09-09T20:39:42.679Z,9.27
2018-09-09T20:42:11.508Z,7.80
2018-09-09T20:44:40.381Z,7.17
2018-09-09T20:47:09.206Z,8.00
2018-09-09T20:49:38.067Z,8.30
2018-09-09T20:52:07.031Z,7.67
2018-09-09T20:54:35.843Z,9.37
2018-09-09T20:57:04.686Z,7.97
2018-09-09T20:59:33.518Z,7.60
2018-09-09T21:02:02.367Z,7.40
2018-09-09T21:04:31.214Z,7.90
2018-09-09T21:07:00.031Z,6.97
2018-09-09T21:09:28.870Z,6.47
2018-09-09T21:11:57.725Z,6.93
2018-09-09T21:14:26.596Z,8.20
2018-09-09T21:16:55.443Z,6.60
2018-09-09T21:19:24.325Z,8.67
2018-09-09T21:21:53.151Z,5.43
2018-09-09T21:24:21.988Z,7.23
2018-09-09T21:26:50.829Z,10.20
2018-09-09T21:29:19.646Z,9.10
2018-09-09T21:31:48.522Z,8.70
2018-09-09T21:34:17.334Z,6.40
2018-09-09T21:36:46.226Z,9.83
2018-09-09T21:39:15.069Z,9.23
2018-09-09T21:41:43.887Z,9.20
2018-09-09T21:44:12.839Z,9.73
2018-09-09T21:46:41.663Z,6.87
2018-09-09T21:49:10.553Z,10.47
2018-09-09T21:51:39.412Z,6.33
2018-09-09T21:54:08.347Z,6.57
2018-09-09T21:56:37.173Z,6.20
2018-09-09T21:59:06.127Z,7.83
2018-09-09T22:01:40.031Z,7.30
2018-09-09T22:04:08.868Z,7.27
2018-09-09T22:06:37.708Z,8.33
2018-09-09T22:09:08.894Z,6.83
2018-09-09T22:11:38.480Z,9.23
2018-09-09T22:14:07.407Z,6.70
2018-09-09T22:16:36.331Z,7.07
2018-09-09T22:19:05.176Z,7.77
2018-09-09T22:21:34.008Z,9.13
2018-09-09T22:24:03.026Z,8.73
2018-09-09T22:26:31.913Z,6.50
2018-09-09T22:29:00.716Z,9.50
2018-09-09T22:31:29.530Z,9.03
2018-09-09T22:33:58.848Z,7.43
2018-09-09T22:36:27.742Z,7.83
2018-09-09T22:38:56.623Z,8.67
2018-09-09T22:41:25.619Z,10.27
2018-09-09T22:43:54.992Z,7.07
2018-09-09T22:46:23.870Z,9.27
2018-09-09T22:48:52.826Z,6.70
2018-09-09T22:51:21.656Z,7.33
2018-09-09T22:53:50.491Z,8.10
2018-09-09T22:56:19.610Z,8.73
2018-09-09T22:58:48.415Z,6.93
2018-09-09T23:01:17.238Z,9.67
2018-09-09T23:03:46.047Z,9.47
2018-09-09T23:06:14.986Z,8.90
2018-09-09T23:08:44.094Z,7.53
2018-09-09T23:11:13.103Z,8.80
2018-09-09T23:13:42.306Z,7.13
2018-09-09T23:16:11.146Z,7.77
2018-09-09T23:18:40.007Z,8.20
2018-09-09T23:21:08.881Z,8.93
2018-09-09T23:23:37.705Z,8.20
2018-09-09T23:26:06.631Z,13.07
2018-09-09T23:28:35.666Z,10.63
2018-09-09T23:31:04.502Z,8.13
2018-09-09T23:33:33.332Z,9.67
2018-09-09T23:36:02.189Z,9.60
2018-09-09T23:38:31.023Z,9.37
2018-09-09T23:40:59.918Z,10.17
2018-09-09T23:43:28.717Z,9.53
2018-09-09T23:45:57.545Z,9.70
2018-09-09T23:48:26.366Z,9.03
2018-09-09T23:50:55.261Z,8.97
2018-09-09T23:53:24.109Z,8.20
2018-09-09T23:55:52.963Z,8.50
2018-09-09T23:58:21.849Z,8.93
